Time;durP1;ratioP1;P1;durP2;ratioP2;P2;SDS_P1;SDS_P2;PMS_P1;PMS_P2;Temp;Humidity;BMP_temperature;BMP_pressure;BME280_temperature;BME280_humidity;BME280_pressure;Samples;Min_cycle;Max_cycle;Signal;HPM_P1;HPM_P2
2023/01/18 00:01:35;;;;;;;12.07;5.63;;;-1.10;99.90;;;;;;5071043;28;20044;-50
2023/01/18 00:04:01;;;;;;;10.10;5.57;;;-1.20;99.90;;;;;;5070651;28;20044;-53
2023/01/18 00:06:26;;;;;;;9.55;5.68;;;-1.20;99.90;;;;;;5074576;28;20111;-48
2023/01/18 00:08:55;;;;;;;11.90;5.43;;;-1.10;99.90;;;;;;5076258;28;20044;-51
2023/01/18 00:11:20;;;;;;;13.25;5.97;;;-1.20;99.90;;;;;;5071222;28;20476;-51
2023/01/18 00:13:47;;;;;;;12.70;6.00;;;-1.20;99.90;;;;;;5071203;28;20087;-48
2023/01/18 00:16:14;;;;;;;10.50;5.45;;;-1.10;99.90;;;;;;5068779;28;20039;-47
2023/01/18 00:18:40;;;;;;;14.23;6.70;;;-1.20;99.90;;;;;;5072100;28;20036;-51
2023/01/18 00:21:08;;;;;;;12.18;6.18;;;-1.10;99.90;;;;;;5070568;28;20047;-49
2023/01/18 00:23:35;;;;;;;16.00;6.22;;;-1.20;99.90;;;;;;5070456;28;20039;-51
2023/01/18 00:26:02;;;;;;;13.88;6.78;;;-1.20;99.90;;;;;;5069879;28;20040;-52
2023/01/18 00:28:28;;;;;;;12.95;6.72;;;-1.30;99.90;;;;;;5070738;28;20033;-48
2023/01/18 00:30:54;;;;;;;14.20;6.68;;;-1.20;99.90;;;;;;5076226;28;20041;-47
2023/01/18 00:33:20;;;;;;;11.80;6.82;;;-1.30;99.90;;;;;;5070030;28;20589;-49
2023/01/18 00:35:56;;;;;;;14.80;6.95;;;-1.20;99.90;;;;;;5073889;28;20040;-52
2023/01/18 00:38:22;;;;;;;12.88;6.38;;;-1.20;99.90;;;;;;5074385;28;20407;-51
2023/01/18 00:40:48;;;;;;;13.82;6.85;;;-1.20;99.90;;;;;;5070829;28;20399;-53
2023/01/18 00:45:58;;;;;;;14.45;6.70;;;-1.20;99.90;;;;;;5070518;28;20054;-50
2023/01/18 00:48:24;;;;;;;17.65;6.75;;;-1.30;99.90;;;;;;5070745;28;20120;-52
2023/01/18 00:50:49;;;;;;;12.57;6.55;;;-1.40;99.90;;;;;;5070167;28;20439;-48
2023/01/18 00:53:15;;;;;;;18.15;6.82;;;-1.30;99.90;;;;;;5069580;28;20514;-51
2023/01/18 00:55:41;;;;;;;12.90;6.78;;;-1.30;99.90;;;;;;5074347;28;20094;-52
2023/01/18 00:58:06;;;;;;;12.40;6.05;;;-1.40;99.90;;;;;;5070335;28;20067;-51
2023/01/18 01:00:32;;;;;;;14.57;7.05;;;-1.20;99.90;;;;;;5069153;28;20043;-54
2023/01/18 01:02:58;;;;;;;13.52;6.78;;;-1.30;99.90;;;;;;5069760;28;20033;-52
2023/01/18 01:08:16;;;;;;;12.05;6.70;;;-1.20;99.90;;;;;;5070010;28;20367;-48
2023/01/18 01:10:45;;;;;;;15.23;6.93;;;-1.40;99.90;;;;;;5070078;28;20055;-48
2023/01/18 01:26:52;;;;;;;11.07;5.75;;;-1.20;99.90;;;;;;5069606;28;19917;-49
2023/01/18 01:29:18;;;;;;;12.18;6.25;;;-1.20;99.90;;;;;;5072123;28;20048;-52
2023/01/18 01:31:43;;;;;;;13.45;5.80;;;-1.20;99.90;;;;;;5073670;28;20039;-48
2023/01/18 01:34:09;;;;;;;12.15;5.25;;;-1.20;99.90;;;;;;5073878;28;20032;-50
2023/01/18 01:36:35;;;;;;;12.18;5.20;;;-1.10;99.90;;;;;;5073656;28;20054;-51
2023/01/18 01:39:00;;;;;;;9.73;5.47;;;-1.20;99.90;;;;;;5085617;28;20052;-48
2023/01/18 01:41:29;;;;;;;11.35;5.20;;;-1.20;99.90;;;;;;5073367;28;20043;-51
2023/01/18 01:44:03;;;;;;;12.10;5.28;;;-1.10;99.90;;;;;;5073349;28;20036;-52
2023/01/18 01:46:52;;;;;;;11.57;5.53;;;-1.20;99.90;;;;;;5071721;28;20051;-50
2023/01/18 01:49:25;;;;;;;10.65;5.47;;;-1.20;99.90;;;;;;5072669;28;20040;-51
2023/01/18 01:51:56;;;;;;;11.43;5.03;;;-1.30;99.90;;;;;;5082704;28;20484;-49
2023/01/18 01:54:28;;;;;;;11.10;5.47;;;-1.30;99.90;;;;;;5076709;28;20036;-50
2023/01/18 01:57:04;;;;;;;11.68;5.13;;;-1.30;99.90;;;;;;5078604;28;20036;-51
2023/01/18 01:59:33;;;;;;;17.48;6.00;;;-1.40;99.90;;;;;;5076601;28;20060;-52
2023/01/18 02:01:59;;;;;;;12.05;5.90;;;-1.40;99.90;;;;;;5073607;28;20044;-52
2023/01/18 02:04:25;;;;;;;10.70;6.03;;;-1.40;99.90;;;;;;5073091;28;20044;-53
2023/01/18 02:06:50;;;;;;;8.98;5.85;;;-1.40;99.90;;;;;;5073623;28;20040;-49
2023/01/18 02:09:21;;;;;;;9.68;5.30;;;-1.40;99.90;;;;;;5082973;28;20032;-49
2023/01/18 02:11:50;;;;;;;13.88;5.70;;;-1.40;99.90;;;;;;5073295;28;20480;-52
2023/01/18 02:14:16;;;;;;;12.82;6.38;;;-1.40;99.90;;;;;;5075180;28;20120;-49
2023/01/18 02:17:08;;;;;;;13.32;5.63;;;-1.40;99.90;;;;;;5091089;28;20114;-49
2023/01/18 02:20:05;;;;;;;15.70;6.68;;;-1.50;99.90;;;;;;5071060;28;20032;-47
2023/01/18 02:23:09;;;;;;;11.63;6.30;;;-1.40;99.90;;;;;;5070920;28;20044;-49
2023/01/18 02:25:52;;;;;;;13.20;6.32;;;-1.40;99.90;;;;;;5073111;28;20472;-49
2023/01/18 02:28:32;;;;;;;10.43;5.53;;;-1.50;99.90;;;;;;5080184;28;20491;-52
2023/01/18 02:31:17;;;;;;;10.88;6.07;;;-1.50;99.90;;;;;;5070076;28;20380;-52
2023/01/18 02:33:57;;;;;;;13.15;6.35;;;-1.50;99.90;;;;;;5075452;28;20119;-52
2023/01/18 02:36:34;;;;;;;12.65;6.10;;;-1.60;99.90;;;;;;5072807;28;20032;-50
2023/01/18 02:39:09;;;;;;;9.45;5.25;;;-1.60;99.90;;;;;;5071910;28;20068;-50
2023/01/18 02:47:27;;;;;;;9.65;5.45;;;-1.60;99.90;;;;;;5074100;28;20048;-53
2023/01/18 02:49:57;;;;;;;10.98;6.13;;;-1.60;99.90;;;;;;5074775;28;20139;-47
2023/01/18 02:52:41;;;;;;;14.52;5.78;;;-1.70;99.90;;;;;;5072466;28;20453;-48
2023/01/18 02:55:40;;;;;;;10.30;5.40;;;-1.10;99.90;;;;;;5072378;28;20044;-49
2023/01/18 02:58:35;;;;;;;11.15;5.68;;;-1.70;99.90;;;;;;5080758;28;20054;-51
2023/01/18 03:01:21;;;;;;;11.40;5.60;;;-1.70;99.90;;;;;;5072434;28;20044;-50
2023/01/18 03:03:48;;;;;;;10.60;5.97;;;-1.70;99.90;;;;;;5072371;28;20136;-53
2023/01/18 03:06:14;;;;;;;11.98;5.93;;;-1.70;99.90;;;;;;5076192;28;20064;-52
2023/01/18 03:08:52;;;;;;;9.45;5.40;;;-1.60;99.90;;;;;;5072456;28;20793;-47
2023/01/18 03:11:30;;;;;;;10.05;5.47;;;-1.70;99.90;;;;;;5072043;28;20048;-49
2023/01/18 03:14:21;;;;;;;10.32;5.47;;;-1.80;99.90;;;;;;5070354;28;20068;-52
2023/01/18 03:16:58;;;;;;;10.95;5.32;;;-1.70;99.90;;;;;;5060975;28;20037;-53
2023/01/18 03:25:16;;;;;;;11.63;5.28;;;-1.70;99.90;;;;;;5036115;28;20044;-48
2023/01/18 03:36:08;;;;;;;11.75;5.70;;;-1.70;99.90;;;;;;5073300;28;20045;-50
2023/01/18 03:38:35;;;;;;;9.88;4.70;;;-1.80;99.90;;;;;;5070837;28;20041;-49
2023/01/18 03:41:01;;;;;;;11.07;5.35;;;-1.70;99.90;;;;;;5072851;28;20048;-50
2023/01/18 03:43:35;;;;;;;11.63;5.72;;;-1.70;99.90;;;;;;5070496;28;20419;-52
2023/01/18 03:46:02;;;;;;;14.05;5.78;;;-1.70;99.90;;;;;;5071267;28;20064;-50
2023/01/18 03:48:28;;;;;;;12.60;5.80;;;-1.60;99.90;;;;;;5080842;28;20490;-49
2023/01/18 03:51:46;;;;;;;10.32;5.93;;;-1.70;99.90;;;;;;5070689;28;20060;-50
2023/01/18 03:54:25;;;;;;;13.65;5.80;;;-1.60;99.90;;;;;;5061820;28;20044;-50
2023/01/18 03:56:56;;;;;;;12.80;6.30;;;-1.70;99.90;;;;;;5071288;28;20107;-49
2023/01/18 03:59:23;;;;;;;11.15;5.50;;;-1.70;99.90;;;;;;5070879;28;20032;-52
2023/01/18 04:01:48;;;;;;;12.20;5.82;;;-1.70;99.90;;;;;;5066400;28;20037;-49
2023/01/18 04:04:14;;;;;;;15.63;6.57;;;-1.80;99.90;;;;;;5070933;28;20510;-49
2023/01/18 04:06:40;;;;;;;11.15;6.28;;;-1.80;99.90;;;;;;5071253;28;21112;-52
2023/01/18 04:09:07;;;;;;;11.43;6.20;;;-1.80;99.90;;;;;;5072782;28;20032;-52
2023/01/18 04:11:32;;;;;;;11.07;6.25;;;-1.80;99.90;;;;;;5077889;28;20388;-52
2023/01/18 04:13:58;;;;;;;14.43;6.25;;;-1.80;99.90;;;;;;5076710;28;20055;-50
2023/01/18 04:16:24;;;;;;;12.10;5.95;;;-1.80;99.90;;;;;;5082191;28;20112;-51
2023/01/18 04:18:50;;;;;;;12.32;5.97;;;-1.80;99.90;;;;;;5070721;28;20070;-51
2023/01/18 04:21:16;;;;;;;14.43;5.90;;;-1.80;99.90;;;;;;5069550;28;20068;-50
2023/01/18 04:23:42;;;;;;;16.60;6.43;;;-1.90;99.90;;;;;;5070402;28;20496;-48
2023/01/18 04:26:07;;;;;;;12.45;5.78;;;-1.90;99.90;;;;;;5071198;28;20067;-49
2023/01/18 04:28:33;;;;;;;14.38;6.30;;;-1.90;99.90;;;;;;5071534;28;20489;-52
2023/01/18 04:30:59;;;;;;;10.98;5.80;;;-2.00;99.90;;;;;;5070418;28;20098;-51
2023/01/18 04:33:25;;;;;;;12.57;6.72;;;-1.90;99.90;;;;;;5070517;28;20071;-48
2023/01/18 04:35:53;;;;;;;10.63;5.90;;;-1.90;99.90;;;;;;5070591;28;20028;-51
2023/01/18 04:38:19;;;;;;;12.20;6.00;;;-1.90;99.90;;;;;;5070635;28;20526;-49
2023/01/18 04:40:45;;;;;;;10.85;5.63;;;-1.90;99.90;;;;;;5070524;28;20044;-50
2023/01/18 04:43:10;;;;;;;12.45;5.72;;;-1.90;99.90;;;;;;5077886;28;20165;-51
2023/01/18 04:45:36;;;;;;;13.02;5.95;;;-1.90;99.90;;;;;;5069674;28;20472;-51
2023/01/18 04:48:02;;;;;;;15.07;5.95;;;-1.90;99.90;;;;;;5068928;28;20135;-50
2023/01/18 04:50:28;;;;;;;11.27;6.07;;;-1.90;99.90;;;;;;5069837;28;20048;-48
2023/01/18 04:52:54;;;;;;;12.07;5.28;;;-2.00;99.90;;;;;;5070037;28;20081;-50
2023/01/18 04:55:19;;;;;;;12.82;5.90;;;-2.00;99.90;;;;;;5070558;28;20060;-50
2023/01/18 04:57:45;;;;;;;10.00;5.70;;;-2.00;99.90;;;;;;5071079;28;20032;-50
2023/01/18 05:00:15;;;;;;;11.65;6.07;;;-2.00;99.90;;;;;;5071032;28;20052;-49
2023/01/18 05:02:41;;;;;;;11.70;6.05;;;-1.90;99.90;;;;;;5070802;28;20048;-49
2023/01/18 05:05:07;;;;;;;10.35;5.38;;;-2.00;99.90;;;;;;5074435;28;20491;-50
2023/01/18 05:07:33;;;;;;;12.85;5.68;;;-1.90;99.90;;;;;;5074278;28;20070;-48
2023/01/18 05:10:01;;;;;;;12.73;5.82;;;-2.00;99.90;;;;;;5073841;28;20072;-50
2023/01/18 05:12:27;;;;;;;13.23;6.25;;;-1.90;99.90;;;;;;5074899;28;20033;-50
2023/01/18 05:14:53;;;;;;;13.40;6.18;;;-2.00;99.90;;;;;;5074555;28;20051;-52
2023/01/18 05:17:19;;;;;;;12.18;6.00;;;-2.00;99.90;;;;;;5078303;28;20040;-47
2023/01/18 05:19:45;;;;;;;11.70;6.28;;;-2.00;99.90;;;;;;5075802;28;20047;-50
2023/01/18 05:22:11;;;;;;;13.48;6.55;;;-2.00;99.90;;;;;;5073815;28;20478;-49
2023/01/18 05:24:40;;;;;;;14.18;6.97;;;-2.00;99.90;;;;;;5073717;28;20048;-46
2023/01/18 05:27:06;;;;;;;16.23;6.47;;;-2.10;99.90;;;;;;5073693;28;20040;-52
2023/01/18 05:29:32;;;;;;;14.45;6.95;;;-2.10;99.90;;;;;;5073877;28;20063;-47
2023/01/18 05:31:57;;;;;;;13.85;6.38;;;-2.20;99.90;;;;;;5072872;28;20036;-47
2023/01/18 05:34:24;;;;;;;12.40;5.97;;;-2.10;99.90;;;;;;5073571;28;20032;-50
2023/01/18 05:36:49;;;;;;;11.90;6.80;;;-2.10;99.90;;;;;;5078809;28;20047;-48
2023/01/18 05:39:15;;;;;;;13.75;7.00;;;-2.10;99.90;;;;;;5075791;28;20048;-51
2023/01/18 05:41:41;;;;;;;12.18;6.78;;;-2.10;99.90;;;;;;5073358;28;20075;-47
2023/01/18 05:44:08;;;;;;;11.02;5.82;;;-2.20;99.90;;;;;;5075284;28;20036;-48
2023/01/18 05:46:34;;;;;;;14.80;6.82;;;-2.30;99.90;;;;;;5075245;28;20070;-50
2023/01/18 05:48:59;;;;;;;15.93;7.07;;;-2.30;99.90;;;;;;5074543;28;20041;-51
2023/01/18 05:51:25;;;;;;;13.15;6.60;;;-2.20;99.90;;;;;;5073278;28;20075;-48
2023/01/18 05:53:51;;;;;;;17.52;6.88;;;-2.30;99.90;;;;;;5054920;28;20051;-47
2023/01/18 05:56:17;;;;;;;15.65;7.07;;;-2.20;99.90;;;;;;5073278;28;20036;-48
2023/01/18 05:58:42;;;;;;;12.98;6.45;;;-2.30;99.90;;;;;;5073228;28;20044;-48
2023/01/18 06:01:08;;;;;;;12.30;6.50;;;-2.30;99.90;;;;;;5073205;28;20059;-49
2023/01/18 06:03:34;;;;;;;14.40;6.68;;;-2.30;99.90;;;;;;5074557;28;20083;-51
2023/01/18 06:06:00;;;;;;;12.65;7.50;;;-2.20;99.90;;;;;;5072942;28;20039;-48
2023/01/18 06:08:26;;;;;;;11.82;6.55;;;-2.20;99.90;;;;;;5072592;28;20032;-47
2023/01/18 06:10:54;;;;;;;14.20;7.00;;;-2.30;99.90;;;;;;5072660;28;20037;-47
2023/01/18 06:13:21;;;;;;;13.75;7.22;;;-2.20;99.90;;;;;;5072864;28;20094;-49
2023/01/18 06:15:47;;;;;;;19.23;7.60;;;-2.20;99.90;;;;;;5070738;28;20373;-49
2023/01/18 06:18:13;;;;;;;13.88;6.65;;;-2.30;99.90;;;;;;5072651;28;20387;-48
2023/01/18 06:20:38;;;;;;;12.18;6.95;;;-2.30;99.90;;;;;;5074399;28;20033;-49
2023/01/18 06:23:04;;;;;;;17.25;8.00;;;-2.30;99.90;;;;;;5072207;28;20101;-49
2023/01/18 06:25:30;;;;;;;19.50;6.88;;;-2.20;99.90;;;;;;5071167;28;20039;-50
2023/01/18 06:27:55;;;;;;;14.95;7.35;;;-2.10;99.90;;;;;;5072669;28;20074;-51
2023/01/18 06:30:21;;;;;;;14.98;7.70;;;-2.30;99.90;;;;;;5072553;28;20110;-54
2023/01/18 06:32:50;;;;;;;14.38;7.80;;;-2.30;99.90;;;;;;5072014;28;20388;-49
2023/01/18 06:35:15;;;;;;;13.27;6.78;;;-2.20;99.90;;;;;;5072475;28;20051;-49
2023/01/18 06:37:45;;;;;;;16.67;7.35;;;-2.30;99.90;;;;;;5072233;28;20377;-52
2023/01/18 06:40:12;;;;;;;15.80;7.40;;;-2.20;99.90;;;;;;5072047;28;20033;-51
2023/01/18 06:42:37;;;;;;;12.45;6.88;;;-2.30;99.90;;;;;;5072321;28;20041;-49
2023/01/18 06:45:04;;;;;;;16.17;7.72;;;-2.30;99.90;;;;;;5072372;28;20399;-47
2023/01/18 06:47:29;;;;;;;18.52;7.70;;;-2.30;99.90;;;;;;5071913;28;20109;-49
2023/01/18 06:49:55;;;;;;;15.00;7.90;;;-2.10;99.90;;;;;;5072024;28;20048;-53
2023/01/18 06:52:21;;;;;;;15.70;7.38;;;-2.20;99.90;;;;;;5071642;28;20491;-48
2023/01/18 06:54:46;;;;;;;15.07;6.85;;;-2.20;99.90;;;;;;5070700;28;21616;-49
2023/01/18 06:57:12;;;;;;;12.30;6.88;;;-2.10;99.90;;;;;;5081783;28;20041;-47
2023/01/18 06:59:39;;;;;;;13.43;7.32;;;-2.20;99.90;;;;;;5072309;28;20028;-48
2023/01/18 07:02:05;;;;;;;21.02;7.85;;;-2.10;99.90;;;;;;5070487;28;20178;-47
2023/01/18 07:04:31;;;;;;;13.10;7.25;;;-2.10;99.90;;;;;;5072041;28;20131;-46
2023/01/18 07:06:57;;;;;;;13.98;7.30;;;-2.10;99.90;;;;;;5079081;28;20147;-49
2023/01/18 07:09:23;;;;;;;15.07;6.85;;;-2.10;99.90;;;;;;5071723;28;20072;-50
2023/01/18 07:11:49;;;;;;;15.93;7.90;;;-2.20;99.90;;;;;;5070742;28;20063;-50
2023/01/18 07:14:15;;;;;;;16.15;7.65;;;-2.20;99.90;;;;;;5083918;28;20527;-48
2023/01/18 07:16:41;;;;;;;19.75;7.95;;;-2.30;99.90;;;;;;5072159;28;20107;-48
2023/01/18 07:19:06;;;;;;;15.70;7.78;;;-2.30;99.90;;;;;;5071947;28;20037;-52
2023/01/18 07:21:32;;;;;;;14.98;6.80;;;-2.20;99.90;;;;;;5071833;28;20480;-51
2023/01/18 07:23:58;;;;;;;18.40;7.32;;;-2.30;99.90;;;;;;5071516;28;20044;-50
2023/01/18 07:26:24;;;;;;;18.20;7.10;;;-2.30;99.90;;;;;;5069734;28;20129;-52
2023/01/18 07:28:51;;;;;;;18.85;7.38;;;-1.70;99.90;;;;;;5071491;28;20033;-51
2023/01/18 07:31:17;;;;;;;15.02;6.75;;;-2.30;99.90;;;;;;5057728;28;20044;-52
2023/01/18 07:33:43;;;;;;;15.68;7.40;;;-2.20;99.90;;;;;;5071685;28;20052;-50
2023/01/18 07:36:10;;;;;;;15.45;7.43;;;-2.20;99.90;;;;;;5062829;28;20032;-49
2023/01/18 07:38:37;;;;;;;18.27;7.90;;;-2.20;99.90;;;;;;5061114;28;20063;-48
2023/01/18 07:41:07;;;;;;;14.23;7.13;;;-2.20;99.90;;;;;;5058455;28;20448;-51
2023/01/18 07:43:33;;;;;;;15.70;7.43;;;-2.20;99.90;;;;;;5059779;28;20068;-49
2023/01/18 07:46:00;;;;;;;13.02;6.97;;;-2.20;99.90;;;;;;5060342;28;20036;-52
2023/01/18 07:48:27;;;;;;;16.30;7.28;;;-2.10;99.90;;;;;;5058193;28;20048;-49
2023/01/18 07:51:01;;;;;;;13.50;7.22;;;-2.20;99.90;;;;;;5061475;28;20048;-50
2023/01/18 07:53:28;;;;;;;15.55;7.05;;;-2.10;99.90;;;;;;5060292;28;20032;-47
2023/01/18 07:55:58;;;;;;;13.80;7.20;;;-2.00;99.90;;;;;;5061882;28;20048;-53
2023/01/18 07:58:24;;;;;;;14.65;6.63;;;-2.10;99.90;;;;;;5060945;28;20032;-49
2023/01/18 08:00:50;;;;;;;15.77;6.32;;;-2.00;99.90;;;;;;5061885;28;20040;-54
2023/01/18 08:03:17;;;;;;;15.15;7.20;;;-2.10;99.90;;;;;;5062711;28;20036;-52
2023/01/18 08:05:43;;;;;;;15.35;7.43;;;-1.90;99.90;;;;;;5060423;28;20384;-53
2023/01/18 08:08:11;;;;;;;15.75;7.63;;;-2.00;99.90;;;;;;5062377;28;20036;-50
2023/01/18 08:10:37;;;;;;;13.18;6.50;;;-2.00;99.90;;;;;;5059713;28;20137;-50
2023/01/18 08:13:05;;;;;;;13.70;6.75;;;-1.90;99.90;;;;;;5061311;28;20102;-51
2023/01/18 08:15:31;;;;;;;15.13;6.75;;;-1.80;99.90;;;;;;5056525;28;20047;-53
2023/01/18 08:18:01;;;;;;;13.68;7.00;;;-1.90;99.90;;;;;;5055857;28;20027;-51
2023/01/18 08:20:27;;;;;;;14.73;6.95;;;-1.80;99.90;;;;;;5054896;28;20037;-50
2023/01/18 08:22:57;;;;;;;15.05;6.97;;;-1.70;99.90;;;;;;5054492;28;20459;-50
2023/01/18 08:25:28;;;;;;;14.10;6.57;;;-1.80;99.90;;;;;;5053327;28;20115;-52
2023/01/18 08:27:56;;;;;;;14.50;6.63;;;-1.80;99.90;;;;;;5050037;28;20048;-49
2023/01/18 08:30:26;;;;;;;16.67;7.10;;;-1.30;99.90;;;;;;5051828;28;20052;-51
2023/01/18 08:32:56;;;;;;;14.23;6.97;;;-1.70;99.90;;;;;;5057813;28;20060;-51
2023/01/18 08:35:27;;;;;;;13.63;6.20;;;-1.70;99.90;;;;;;5059745;28;20037;-51
2023/01/18 08:37:53;;;;;;;12.70;7.07;;;-1.70;99.90;;;;;;5059853;28;20036;-49
2023/01/18 08:40:20;;;;;;;17.08;7.50;;;-1.60;99.90;;;;;;5060303;28;20157;-48
2023/01/18 08:42:46;;;;;;;12.63;6.82;;;-1.80;99.90;;;;;;5060065;28;20029;-51
2023/01/18 08:45:12;;;;;;;14.32;7.50;;;-1.70;99.90;;;;;;5059888;28;20537;-53
2023/01/18 08:47:39;;;;;;;16.02;6.70;;;-1.50;99.90;;;;;;5061382;28;20045;-50
2023/01/18 08:50:06;;;;;;;13.63;7.00;;;-1.50;99.90;;;;;;5058243;28;20041;-46
2023/01/18 08:52:33;;;;;;;15.98;7.05;;;-1.40;99.90;;;;;;5058215;28;20084;-51
2023/01/18 08:55:00;;;;;;;17.67;7.60;;;-1.50;99.90;;;;;;5058513;28;20044;-51
2023/01/18 08:57:29;;;;;;;16.10;8.57;;;-1.50;99.90;;;;;;5058091;28;20441;-53
2023/01/18 08:59:55;;;;;;;17.10;8.13;;;-1.40;99.90;;;;;;5059735;28;20483;-52
2023/01/18 09:02:24;;;;;;;17.40;8.73;;;-1.40;99.90;;;;;;5061738;28;20043;-51
2023/01/18 09:04:52;;;;;;;18.13;8.63;;;-1.10;99.90;;;;;;5059972;28;20041;-51
2023/01/18 09:07:19;;;;;;;14.85;7.65;;;-1.30;99.90;;;;;;5061518;28;20072;-50
2023/01/18 09:09:44;;;;;;;16.33;8.75;;;-0.80;99.90;;;;;;5061402;28;20048;-52
2023/01/18 09:12:11;;;;;;;14.80;8.18;;;-1.40;99.90;;;;;;5060940;28;20033;-52
2023/01/18 09:14:37;;;;;;;17.58;8.73;;;-1.30;99.90;;;;;;5057129;28;20613;-49
2023/01/18 09:17:03;;;;;;;12.55;8.05;;;-1.30;99.90;;;;;;5060531;28;20060;-49
2023/01/18 09:19:29;;;;;;;14.85;8.27;;;-1.10;99.90;;;;;;5060109;28;20119;-51
2023/01/18 09:21:54;;;;;;;16.00;7.93;;;-1.20;99.90;;;;;;5058103;28;20044;-48
2023/01/18 09:24:20;;;;;;;21.05;10.00;;;-1.30;99.90;;;;;;5059810;28;20036;-52
2023/01/18 09:26:50;;;;;;;18.67;8.20;;;-1.20;99.90;;;;;;5059169;28;20037;-52
2023/01/18 09:29:16;;;;;;;17.35;8.57;;;-1.00;99.90;;;;;;5058041;28;20231;-49
2023/01/18 09:31:43;;;;;;;17.73;9.45;;;-0.70;99.90;;;;;;5058359;28;20090;-50
2023/01/18 09:34:11;;;;;;;18.05;8.55;;;-1.00;99.90;;;;;;5058291;28;20036;-50
2023/01/18 09:36:36;;;;;;;18.20;9.23;;;-0.80;99.90;;;;;;5060751;28;20029;-53
2023/01/18 09:39:04;;;;;;;17.08;9.20;;;-0.80;99.90;;;;;;5061672;28;20043;-54
2023/01/18 09:41:31;;;;;;;20.35;9.50;;;-0.80;99.90;;;;;;5056391;28;20049;-51
2023/01/18 09:44:06;;;;;;;22.15;9.73;;;-0.70;99.90;;;;;;5057825;28;20071;-50
2023/01/18 09:46:36;;;;;;;16.50;8.80;;;-0.60;99.90;;;;;;5057776;28;20388;-53
2023/01/18 09:49:04;;;;;;;17.38;9.80;;;-0.40;99.90;;;;;;5061753;28;20487;-47
2023/01/18 09:51:38;;;;;;;15.48;8.60;;;-0.50;99.90;;;;;;5063088;28;20049;-52
2023/01/18 09:54:08;;;;;;;16.67;9.20;;;-0.30;99.90;;;;;;5063112;28;20044;-51
2023/01/18 09:57:21;;;;;;;15.48;9.05;;;0.60;99.90;;;;;;5064030;28;20033;-51
2023/01/18 09:59:58;;;;;;;24.17;9.13;;;-0.20;99.90;;;;;;5044470;28;20060;-53
2023/01/18 10:02:39;;;;;;;21.48;8.80;;;-0.10;99.90;;;;;;5063749;28;20103;-52
2023/01/18 10:05:20;;;;;;;15.85;8.38;;;-0.10;99.90;;;;;;5061324;28;20119;-52
2023/01/18 10:08:15;;;;;;;15.35;8.60;;;0.10;99.90;;;;;;5063102;28;20046;-51
2023/01/18 10:11:03;;;;;;;14.88;8.60;;;0.20;99.90;;;;;;5065814;28;20052;-51
2023/01/18 10:13:50;;;;;;;15.40;8.63;;;0.20;99.90;;;;;;5059779;28;20399;-48
2023/01/18 10:16:17;;;;;;;15.68;9.32;;;0.30;99.90;;;;;;5061604;28;20041;-50
2023/01/18 10:18:46;;;;;;;19.02;9.40;;;0.30;99.90;;;;;;5062114;28;20036;-48
2023/01/18 10:21:36;;;;;;;17.02;10.35;;;0.30;99.90;;;;;;5057572;28;20061;-53
2023/01/18 10:24:12;;;;;;;14.15;8.98;;;0.70;99.90;;;;;;5063396;28;20063;-50
2023/01/18 10:26:39;;;;;;;14.90;8.82;;;1.00;99.90;;;;;;5062719;28;20044;-52
2023/01/18 10:29:05;;;;;;;15.38;7.80;;;1.40;99.90;;;;;;5061386;28;20044;-48
2023/01/18 10:31:39;;;;;;;13.35;7.88;;;1.70;99.90;;;;;;5061796;28;20053;-50
2023/01/18 10:34:16;;;;;;;15.43;7.65;;;1.80;99.90;;;;;;5063193;28;20041;-51
2023/01/18 10:36:46;;;;;;;11.43;7.22;;;2.00;99.90;;;;;;5060750;28;20415;-46
2023/01/18 10:39:26;;;;;;;12.90;6.82;;;2.20;99.90;;;;;;5059506;28;20040;-46
2023/01/18 10:41:55;;;;;;;13.38;6.90;;;2.30;99.90;;;;;;5063277;28;20064;-51
2023/01/18 10:44:22;;;;;;;11.57;6.75;;;2.40;99.90;;;;;;5062282;28;20121;-48
2023/01/18 10:46:48;;;;;;;12.90;6.93;;;2.70;99.90;;;;;;5062437;28;20130;-49
2023/01/18 10:49:36;;;;;;;14.13;7.53;;;2.60;99.90;;;;;;5061739;28;20036;-49
2023/01/18 10:52:24;;;;;;;11.73;6.60;;;2.60;99.90;;;;;;5064470;28;20044;-49
2023/01/18 10:54:57;;;;;;;13.98;6.95;;;2.70;99.90;;;;;;5062405;28;20029;-50
2023/01/18 10:57:33;;;;;;;12.43;6.40;;;2.80;99.90;;;;;;5062528;28;20036;-51
2023/01/18 10:59:59;;;;;;;12.68;7.10;;;2.90;99.90;;;;;;5062208;28;20119;-51
2023/01/18 11:02:33;;;;;;;14.48;6.15;;;3.10;99.90;;;;;;5061449;28;20539;-51
2023/01/18 11:05:14;;;;;;;11.32;6.53;;;3.10;99.90;;;;;;5061616;28;20049;-51
2023/01/18 11:07:40;;;;;;;12.38;5.82;;;3.20;99.90;;;;;;5062783;28;20051;-48
2023/01/18 11:10:25;;;;;;;12.30;7.13;;;3.20;99.90;;;;;;5061766;28;20040;-50
2023/01/18 11:12:53;;;;;;;10.80;7.20;;;3.00;99.90;;;;;;5063183;28;20434;-48
2023/01/18 11:15:18;;;;;;;13.05;6.60;;;2.90;99.90;;;;;;5061523;28;20075;-53
2023/01/18 11:17:54;;;;;;;11.23;6.65;;;2.80;99.90;;;;;;5063074;28;20064;-53
2023/01/18 11:20:45;;;;;;;10.80;6.75;;;2.70;99.90;;;;;;5060965;28;20086;-51
2023/01/18 11:23:24;;;;;;;13.27;7.10;;;2.80;99.90;;;;;;5060059;28;20112;-51
2023/01/18 11:26:14;;;;;;;11.65;6.53;;;2.80;99.90;;;;;;5061301;28;20082;-48
2023/01/18 11:28:59;;;;;;;15.65;6.88;;;3.00;99.90;;;;;;5060004;28;20137;-49
2023/01/18 11:31:47;;;;;;;11.65;6.22;;;3.30;99.90;;;;;;5058821;28;20036;-49
2023/01/18 11:34:30;;;;;;;9.63;5.40;;;3.60;99.90;;;;;;5071771;28;20713;-48
2023/01/18 11:36:57;;;;;;;13.00;6.60;;;3.80;99.90;;;;;;5059260;28;20144;-49
2023/01/18 11:39:36;;;;;;;11.05;6.43;;;4.10;99.90;;;;;;5060248;28;20025;-51
2023/01/18 11:42:15;;;;;;;11.27;5.93;;;4.20;99.90;;;;;;5059987;28;20041;-50
2023/01/18 11:45:03;;;;;;;13.23;7.25;;;4.30;99.90;;;;;;5059611;28;20025;-48
2023/01/18 11:48:07;;;;;;;10.52;6.18;;;4.50;99.90;;;;;;5060252;28;20476;-49
2023/01/18 11:50:33;;;;;;;12.73;6.23;;;4.60;99.90;;;;;;5047076;28;20455;-49
2023/01/18 11:53:19;;;;;;;12.07;6.10;;;4.70;99.90;;;;;;5059751;28;20279;-47
2023/01/18 11:55:54;;;;;;;13.60;6.22;;;4.80;99.90;;;;;;5038669;28;20135;-50
2023/01/18 11:58:28;;;;;;;11.45;6.28;;;5.00;99.90;;;;;;5061644;28;20476;-47
2023/01/18 12:01:21;;;;;;;13.10;6.18;;;5.40;99.90;;;;;;5059452;28;20040;-52
2023/01/18 12:03:53;;;;;;;10.60;6.38;;;5.30;99.90;;;;;;5056716;28;20093;-51
2023/01/18 12:06:45;;;;;;;8.73;4.68;;;5.50;99.90;;;;;;5058254;28;20559;-49
2023/01/18 12:09:32;;;;;;;10.18;4.47;;;5.40;99.90;;;;;;5042731;28;20059;-47
2023/01/18 12:12:14;;;;;;;7.90;4.10;;;5.50;99.90;;;;;;5058200;28;20074;-49
2023/01/18 12:15:06;;;;;;;8.07;3.88;;;5.40;99.90;;;;;;5058120;28;20495;-51
2023/01/18 12:17:47;;;;;;;10.18;4.38;;;5.40;99.90;;;;;;5061625;28;20033;-49
2023/01/18 12:20:26;;;;;;;8.93;4.25;;;5.20;99.90;;;;;;5060022;28;20487;-47
2023/01/18 12:23:02;;;;;;;9.00;4.57;;;5.00;99.90;;;;;;5063827;28;20050;-51
2023/01/18 12:25:40;;;;;;;9.00;4.30;;;4.80;99.90;;;;;;5069229;28;20412;-49
2023/01/18 12:28:08;;;;;;;8.30;4.47;;;4.80;99.90;;;;;;5069221;28;20543;-48
2023/01/18 12:31:13;;;;;;;8.73;4.72;;;4.90;99.90;;;;;;5070313;28;20571;-50
2023/01/18 12:33:45;;;;;;;9.85;4.30;;;5.00;99.90;;;;;;5070281;28;20090;-47
2023/01/18 12:36:30;;;;;;;9.60;4.75;;;5.40;99.90;;;;;;5069981;28;20071;-53
2023/01/18 12:38:55;;;;;;;;;;;5.20;99.90;;;;;;5075963;28;20123;-49
2023/01/18 12:41:48;;;;;;;9.02;4.38;;;5.40;99.90;;;;;;5090981;28;19961;-50
2023/01/18 12:44:21;;;;;;;10.82;4.55;;;5.40;99.90;;;;;;5078275;28;20498;-50
2023/01/18 12:47:41;;;;;;;7.07;4.05;;;5.50;99.90;;;;;;5070362;28;20042;-51
2023/01/18 12:50:26;;;;;;;8.95;4.45;;;5.50;99.90;;;;;;5046167;28;20033;-53
2023/01/18 12:52:59;;;;;;;9.15;4.03;;;5.70;99.90;;;;;;5069554;28;20052;-50
2023/01/18 12:55:30;;;;;;;8.63;4.05;;;5.90;99.90;;;;;;5082045;28;20614;-51
2023/01/18 12:57:58;;;;;;;8.10;3.90;;;6.00;99.90;;;;;;5089220;28;20040;-48
2023/01/18 13:00:34;;;;;;;8.25;4.07;;;6.00;99.90;;;;;;5078832;28;20037;-49
2023/01/18 13:03:09;;;;;;;8.35;3.63;;;6.10;99.90;;;;;;5069510;28;20051;-49
2023/01/18 13:05:56;;;;;;;10.30;3.88;;;6.30;99.90;;;;;;5077620;28;20040;-53
2023/01/18 13:08:30;;;;;;;6.90;3.42;;;6.30;99.90;;;;;;5068778;28;20049;-50
2023/01/18 13:11:17;;;;;;;7.90;3.50;;;6.40;99.90;;;;;;5067827;28;20045;-47
2023/01/18 13:13:46;;;;;;;8.85;3.28;;;6.40;99.90;;;;;;5069761;28;20361;-52
2023/01/18 13:16:27;;;;;;;8.57;3.63;;;6.40;99.90;;;;;;5067422;28;20042;-51
2023/01/18 13:19:02;;;;;;;8.20;3.17;;;6.30;99.90;;;;;;5070341;28;20095;-48
2023/01/18 13:22:06;;;;;;;10.07;3.50;;;6.20;99.90;;;;;;5067553;28;20047;-47
2023/01/18 13:25:17;;;;;;;10.45;3.47;;;6.00;99.90;;;;;;5060504;28;20053;-48
2023/01/18 13:28:15;;;;;;;6.72;3.55;;;5.70;99.90;;;;;;5065090;28;20067;-45
2023/01/18 13:30:55;;;;;;;8.75;3.42;;;5.40;99.90;;;;;;5061311;28;20047;-48
2023/01/18 13:33:24;;;;;;;10.07;3.53;;;5.20;99.90;;;;;;5073607;28;20056;-48
2023/01/18 13:36:16;;;;;;;8.68;3.92;;;5.10;99.90;;;;;;5075521;28;20472;-49
2023/01/18 13:38:57;;;;;;;8.50;3.83;;;4.90;99.90;;;;;;5073996;28;20040;-52
2023/01/18 13:41:26;;;;;;;8.23;3.58;;;4.80;99.90;;;;;;5074345;28;20634;-49
2023/01/18 13:43:52;;;;;;;7.95;3.78;;;4.70;99.90;;;;;;5075175;28;20048;-51